sensor_id;sensor_type;location;lat;lon;timestamp;P1;durP1;ratioP1;P2;durP2;ratioP2
55350;SDS011;62194;49.480;10.986;2023-10-13T00:00:04;15.60;;;9.77;;
55350;SDS011;62194;49.480;10.986;2023-10-13T00:00:30;15.69;;;9.77;;
55350;SDS011;62194;49.480;10.986;2023-10-13T00:00:41;16.29;;;9.68;;
55350;SDS011;62194;49.480;10.986;2023-10-13T00:00:46;15.88;;;9.55;;
55350;SDS011;62194;49.480;10.986;2023-10-13T00:00:52;15.50;;;9.50;;
55350;SDS011;62194;49.480;10.986;2023-10-13T00:01:02;14.90;;;9.27;;
55350;SDS011;62194;49.480;10.986;2023-10-13T00:01:09;13.90;;;9.20;;
55350;SDS011;62194;49.480;10.986;2023-10-13T00:01:16;12.22;;;9.26;;
55350;SDS011;62194;49.480;10.986;2023-10-13T00:01:22;12.27;;;9.30;;
55350;SDS011;62194;49.480;10.986;2023-10-13T00:01:28;12.45;;;9.32;;
55350;SDS011;62194;49.480;10.986;2023-10-13T00:01:34;13.10;;;9.52;;
55350;SDS011;62194;49.480;10.986;2023-10-13T00:01:39;13.52;;;9.55;;
55350;SDS011;62194;49.480;10.986;2023-10-13T00:01:45;13.63;;;9.57;;
55350;SDS011;62194;49.480;10.986;2023-10-13T00:01:57;14.14;;;9.65;;
55350;SDS011;62194;49.480;10.986;2023-10-13T00:02:07;14.93;;;9.73;;
55350;SDS011;62194;49.480;10.986;2023-10-13T00:02:13;15.03;;;9.93;;
55350;SDS011;62194;49.480;10.986;2023-10-13T00:02:19;15.82;;;10.23;;
55350;SDS011;62194;49.480;10.986;2023-10-13T00:02:26;15.62;;;10.03;;
55350;SDS011;62194;49.480;10.986;2023-10-13T00:02:31;14.17;;;9.87;;
55350;SDS011;62194;49.480;10.986;2023-10-13T00:02:38;13.40;;;9.74;;
55350;SDS011;62194;49.480;10.986;2023-10-13T00:02:44;13.93;;;9.75;;
55350;SDS011;62194;49.480;10.986;2023-10-13T00:02:50;13.87;;;9.53;;
55350;SDS011;62194;49.480;10.986;2023-10-13T00:02:56;13.55;;;9.85;;
55350;SDS011;62194;49.480;10.986;2023-10-13T00:03:05;15.07;;;10.07;;
55350;SDS011;62194;49.480;10.986;2023-10-13T00:03:11;15.68;;;10.12;;
55350;SDS011;62194;49.480;10.986;2023-10-13T00:03:23;15.36;;;9.96;;
55350;SDS011;62194;49.480;10.986;2023-10-13T00:03:30;14.82;;;9.76;;
55350;SDS011;62194;49.480;10.986;2023-10-13T00:03:36;13.95;;;9.55;;
55350;SDS011;62194;49.480;10.986;2023-10-13T00:03:42;13.63;;;9.53;;
55350;SDS011;62194;49.480;10.986;2023-10-13T00:03:47;13.43;;;9.57;;
55350;SDS011;62194;49.480;10.986;2023-10-13T00:03:52;13.93;;;9.73;;
55350;SDS011;62194;49.480;10.986;2023-10-13T00:03:59;13.65;;;9.48;;
55350;SDS011;62194;49.480;10.986;2023-10-13T00:04:04;13.70;;;9.45;;
55350;SDS011;62194;49.480;10.986;2023-10-13T00:04:10;14.05;;;9.45;;
55350;SDS011;62194;49.480;10.986;2023-10-13T00:04:16;13.93;;;9.43;;
55350;SDS011;62194;49.480;10.986;2023-10-13T00:04:21;13.73;;;9.50;;
55350;SDS011;62194;49.480;10.986;2023-10-13T00:04:29;13.33;;;9.70;;
55350;SDS011;62194;49.480;10.986;2023-10-13T00:04:36;14.20;;;10.17;;
55350;SDS011;62194;49.480;10.986;2023-10-13T00:04:41;14.37;;;10.20;;
55350;SDS011;62194;49.480;10.986;2023-10-13T00:04:47;14.52;;;10.32;;
55350;SDS011;62194;49.480;10.986;2023-10-13T00:04:52;14.43;;;10.27;;
55350;SDS011;62194;49.480;10.986;2023-10-13T00:04:57;14.90;;;10.07;;
55350;SDS011;62194;49.480;10.986;2023-10-13T00:05:03;15.53;;;9.93;;
55350;SDS011;62194;49.480;10.986;2023-10-13T00:05:08;14.38;;;9.57;;
55350;SDS011;62194;49.480;10.986;2023-10-13T00:05:14;14.98;;;9.55;;
55350;SDS011;62194;49.480;10.986;2023-10-13T00:05:21;15.27;;;9.57;;
55350;SDS011;62194;49.480;10.986;2023-10-13T00:05:27;16.03;;;9.83;;
55350;SDS011;62194;49.480;10.986;2023-10-13T00:05:35;16.83;;;9.90;;
55350;SDS011;62194;49.480;10.986;2023-10-13T00:05:42;16.08;;;9.88;;
55350;SDS011;62194;49.480;10.986;2023-10-13T00:05:48;15.32;;;9.60;;
55350;SDS011;62194;49.480;10.986;2023-10-13T00:05:58;13.70;;;9.20;;
55350;SDS011;62194;49.480;10.986;2023-10-13T00:06:08;12.97;;;9.30;;
55350;SDS011;62194;49.480;10.986;2023-10-13T00:06:13;14.90;;;9.37;;
55350;SDS011;62194;49.480;10.986;2023-10-13T00:06:20;15.36;;;9.34;;
55350;SDS011;62194;49.480;10.986;2023-10-13T00:06:25;16.33;;;9.50;;
55350;SDS011;62194;49.480;10.986;2023-10-13T00:06:31;16.40;;;9.50;;
55350;SDS011;62194;49.480;10.986;2023-10-13T00:06:37;15.93;;;9.65;;
55350;SDS011;62194;49.480;10.986;2023-10-13T00:06:42;14.30;;;9.43;;
55350;SDS011;62194;49.480;10.986;2023-10-13T00:06:48;13.15;;;9.40;;
55350;SDS011;62194;49.480;10.986;2023-10-13T00:06:54;13.20;;;9.40;;
55350;SDS011;62194;49.480;10.986;2023-10-13T00:07:03;14.40;;;9.50;;
55350;SDS011;62194;49.480;10.986;2023-10-13T00:07:09;14.83;;;9.40;;
55350;SDS011;62194;49.480;10.986;2023-10-13T00:07:14;16.27;;;9.70;;
55350;SDS011;62194;49.480;10.986;2023-10-13T00:07:20;16.75;;;9.80;;
55350;SDS011;62194;49.480;10.986;2023-10-13T00:07:25;16.60;;;9.67;;
55350;SDS011;62194;49.480;10.986;2023-10-13T00:07:30;15.00;;;9.50;;
55350;SDS011;62194;49.480;10.986;2023-10-13T00:07:35;15.57;;;9.70;;
55350;SDS011;62194;49.480;10.986;2023-10-13T00:07:41;15.25;;;9.68;;
55350;SDS011;62194;49.480;10.986;2023-10-13T00:07:46;14.83;;;9.70;;
55350;SDS011;62194;49.480;10.986;2023-10-13T00:07:51;14.27;;;9.57;;
55350;SDS011;62194;49.480;10.986;2023-10-13T00:07:58;14.77;;;9.67;;
55350;SDS011;62194;49.480;10.986;2023-10-13T00:08:08;14.23;;;9.40;;
55350;SDS011;62194;49.480;10.986;2023-10-13T00:08:14;13.88;;;9.24;;
55350;SDS011;62194;49.480;10.986;2023-10-13T00:08:19;12.52;;;9.02;;
55350;SDS011;62194;49.480;10.986;2023-10-13T00:08:25;12.00;;;9.10;;
55350;SDS011;62194;49.480;10.986;2023-10-13T00:08:31;12.35;;;9.07;;
55350;SDS011;62194;49.480;10.986;2023-10-13T00:08:36;12.43;;;9.07;;
55350;SDS011;62194;49.480;10.986;2023-10-13T00:08:42;13.32;;;9.07;;
55350;SDS011;62194;49.480;10.986;2023-10-13T00:08:47;14.33;;;9.33;;
55350;SDS011;62194;49.480;10.986;2023-10-13T00:08:53;14.95;;;9.48;;
55350;SDS011;62194;49.480;10.986;2023-10-13T00:09:00;14.37;;;9.50;;
55350;SDS011;62194;49.480;10.986;2023-10-13T00:09:05;14.30;;;9.60;;
55350;SDS011;62194;49.480;10.986;2023-10-13T00:09:10;13.48;;;9.68;;
55350;SDS011;62194;49.480;10.986;2023-10-13T00:09:19;14.63;;;9.90;;
55350;SDS011;62194;49.480;10.986;2023-10-13T00:09:30;14.57;;;9.90;;
55350;SDS011;62194;49.480;10.986;2023-10-13T00:09:42;15.44;;;9.95;;
55350;SDS011;62194;49.480;10.986;2023-10-13T00:09:47;15.00;;;9.70;;
55350;SDS011;62194;49.480;10.986;2023-10-13T00:09:52;15.10;;;9.73;;
55350;SDS011;62194;49.480;10.986;2023-10-13T00:09:58;14.68;;;9.75;;
55350;SDS011;62194;49.480;10.986;2023-10-13T00:10:04;14.50;;;9.80;;
55350;SDS011;62194;49.480;10.986;2023-10-13T00:10:10;13.48;;;9.75;;
55350;SDS011;62194;49.480;10.986;2023-10-13T00:10:17;12.82;;;9.98;;
55350;SDS011;62194;49.480;10.986;2023-10-13T00:10:23;14.53;;;10.07;;
55350;SDS011;62194;49.480;10.986;2023-10-13T00:10:29;15.80;;;9.93;;
55350;SDS011;62194;49.480;10.986;2023-10-13T00:10:35;15.88;;;9.88;;
55350;SDS011;62194;49.480;10.986;2023-10-13T00:10:41;15.82;;;9.85;;
55350;SDS011;62194;49.480;10.986;2023-10-13T00:10:47;16.20;;;9.83;;
55350;SDS011;62194;49.480;10.986;2023-10-13T00:10:52;15.13;;;9.93;;
55350;SDS011;62194;49.480;10.986;2023-10-13T00:11:01;13.48;;;9.90;;
55350;SDS011;62194;49.480;10.986;2023-10-13T00:11:11;13.53;;;9.90;;
55350;SDS011;62194;49.480;10.986;2023-10-13T00:11:17;13.16;;;9.64;;
55350;SDS011;62194;49.480;10.986;2023-10-13T00:11:23;13.20;;;9.50;;
55350;SDS011;62194;49.480;10.986;2023-10-13T00:11:31;14.23;;;9.30;;
55350;SDS011;62194;49.480;10.986;2023-10-13T00:11:37;14.67;;;9.33;;
55350;SDS011;62194;49.480;10.986;2023-10-13T00:11:46;15.00;;;9.47;;
55350;SDS011;62194;49.480;10.986;2023-10-13T00:11:52;13.50;;;9.38;;
55350;SDS011;62194;49.480;10.986;2023-10-13T00:11:59;13.43;;;9.43;;
55350;SDS011;62194;49.480;10.986;2023-10-13T00:12:05;12.63;;;9.53;;
55350;SDS011;62194;49.480;10.986;2023-10-13T00:12:14;13.16;;;9.44;;
55350;SDS011;62194;49.480;10.986;2023-10-13T00:12:19;14.80;;;9.50;;
55350;SDS011;62194;49.480;10.986;2023-10-13T00:12:28;15.57;;;9.50;;
55350;SDS011;62194;49.480;10.986;2023-10-13T00:12:36;15.61;;;9.54;;
55350;SDS011;62194;49.480;10.986;2023-10-13T00:12:43;15.43;;;9.70;;
55350;SDS011;62194;49.480;10.986;2023-10-13T00:12:54;14.25;;;9.46;;
55350;SDS011;62194;49.480;10.986;2023-10-13T00:13:10;15.77;;;9.71;;
55350;SDS011;62194;49.480;10.986;2023-10-13T00:13:20;17.21;;;9.91;;
55350;SDS011;62194;49.480;10.986;2023-10-13T00:13:27;16.38;;;9.65;;
55350;SDS011;62194;49.480;10.986;2023-10-13T00:13:32;16.77;;;9.50;;
55350;SDS011;62194;49.480;10.986;2023-10-13T00:13:48;15.55;;;9.27;;
55350;SDS011;62194;49.480;10.986;2023-10-13T00:13:56;13.35;;;9.02;;
55350;SDS011;62194;49.480;10.986;2023-10-13T00:14:01;12.30;;;9.20;;
55350;SDS011;62194;49.480;10.986;2023-10-13T00:14:08;11.17;;;9.13;;
55350;SDS011;62194;49.480;10.986;2023-10-13T00:14:14;11.83;;;9.33;;
55350;SDS011;62194;49.480;10.986;2023-10-13T00:14:22;13.53;;;9.63;;
55350;SDS011;62194;49.480;10.986;2023-10-13T00:14:35;14.52;;;9.82;;
55350;SDS011;62194;49.480;10.986;2023-10-13T00:14:42;14.76;;;9.90;;
55350;SDS011;62194;49.480;10.986;2023-10-13T00:14:50;14.78;;;9.65;;
55350;SDS011;62194;49.480;10.986;2023-10-13T00:14:56;15.97;;;9.57;;
55350;SDS011;62194;49.480;10.986;2023-10-13T00:15:01;16.88;;;9.55;;
55350;SDS011;62194;49.480;10.986;2023-10-13T00:15:09;17.27;;;9.68;;
55350;SDS011;62194;49.480;10.986;2023-10-13T00:15:18;15.30;;;9.47;;
55350;SDS011;62194;49.480;10.986;2023-10-13T00:15:32;14.04;;;9.45;;
55350;SDS011;62194;49.480;10.986;2023-10-13T00:15:44;13.50;;;9.29;;
55350;SDS011;62194;49.480;10.986;2023-10-13T00:16:01;13.74;;;9.38;;
55350;SDS011;62194;49.480;10.986;2023-10-13T00:16:08;12.90;;;9.40;;
55350;SDS011;62194;49.480;10.986;2023-10-13T00:16:15;14.60;;;9.70;;
55350;SDS011;62194;49.480;10.986;2023-10-13T00:16:26;14.97;;;9.82;;
55350;SDS011;62194;49.480;10.986;2023-10-13T00:16:33;15.80;;;9.86;;
55350;SDS011;62194;49.480;10.986;2023-10-13T00:16:39;16.90;;;9.98;;
55350;SDS011;62194;49.480;10.986;2023-10-13T00:16:45;15.10;;;9.77;;
55350;SDS011;62194;49.480;10.986;2023-10-13T00:17:06;14.80;;;10.01;;
55350;SDS011;62194;49.480;10.986;2023-10-13T00:17:30;14.70;;;9.86;;
55350;SDS011;62194;49.480;10.986;2023-10-13T00:17:37;14.04;;;9.62;;
55350;SDS011;62194;49.480;10.986;2023-10-13T00:17:43;13.43;;;9.70;;
55350;SDS011;62194;49.480;10.986;2023-10-13T00:17:48;13.25;;;9.57;;
55350;SDS011;62194;49.480;10.986;2023-10-13T00:17:54;13.93;;;9.50;;
55350;SDS011;62194;49.480;10.986;2023-10-13T00:18:00;15.17;;;9.40;;
55350;SDS011;62194;49.480;10.986;2023-10-13T00:18:06;16.10;;;9.43;;
55350;SDS011;62194;49.480;10.986;2023-10-13T00:18:17;18.29;;;9.59;;
55350;SDS011;62194;49.480;10.986;2023-10-13T00:18:27;19.03;;;10.07;;
55350;SDS011;62194;49.480;10.986;2023-10-13T00:18:38;17.77;;;9.89;;
55350;SDS011;62194;49.480;10.986;2023-10-13T00:18:47;16.61;;;9.69;;
55350;SDS011;62194;49.480;10.986;2023-10-13T00:18:54;16.78;;;9.50;;
55350;SDS011;62194;49.480;10.986;2023-10-13T00:19:02;17.00;;;9.60;;
55350;SDS011;62194;49.480;10.986;2023-10-13T00:19:10;17.71;;;9.80;;
55350;SDS011;62194;49.480;10.986;2023-10-13T00:19:18;16.12;;;9.74;;
55350;SDS011;62194;49.480;10.986;2023-10-13T00:19:23;16.53;;;9.70;;
55350;SDS011;62194;49.480;10.986;2023-10-13T00:19:32;15.93;;;9.65;;
55350;SDS011;62194;49.480;10.986;2023-10-13T00:19:43;14.70;;;9.66;;
55350;SDS011;62194;49.480;10.986;2023-10-13T00:19:51;13.27;;;9.80;;
55350;SDS011;62194;49.480;10.986;2023-10-13T00:20:00;13.57;;;9.90;;
55350;SDS011;62194;49.480;10.986;2023-10-13T00:20:05;13.63;;;9.80;;
55350;SDS011;62194;49.480;10.986;2023-10-13T00:20:17;13.73;;;9.76;;
55350;SDS011;62194;49.480;10.986;2023-10-13T00:20:33;14.06;;;9.94;;
55350;SDS011;62194;49.480;10.986;2023-10-13T00:20:42;14.49;;;9.80;;
55350;SDS011;62194;49.480;10.986;2023-10-13T00:20:57;15.15;;;9.51;;
55350;SDS011;62194;49.480;10.986;2023-10-13T00:21:02;14.68;;;9.32;;
55350;SDS011;62194;49.480;10.986;2023-10-13T00:21:17;15.61;;;9.56;;
55350;SDS011;62194;49.480;10.986;2023-10-13T00:21:35;15.56;;;9.99;;
55350;SDS011;62194;49.480;10.986;2023-10-13T00:21:41;14.00;;;9.97;;
55350;SDS011;62194;49.480;10.986;2023-10-13T00:21:47;14.32;;;10.13;;
55350;SDS011;62194;49.480;10.986;2023-10-13T00:21:55;13.23;;;10.00;;
55350;SDS011;62194;49.480;10.986;2023-10-13T00:22:14;13.64;;;9.68;;
55350;SDS011;62194;49.480;10.986;2023-10-13T00:22:24;15.18;;;9.65;;
55350;SDS011;62194;49.480;10.986;2023-10-13T00:22:29;15.32;;;9.45;;
55350;SDS011;62194;49.480;10.986;2023-10-13T00:22:36;15.10;;;9.30;;
55350;SDS011;62194;49.480;10.986;2023-10-13T00:22:44;14.91;;;9.31;;
55350;SDS011;62194;49.480;10.986;2023-10-13T00:22:50;14.30;;;9.37;;
55350;SDS011;62194;49.480;10.986;2023-10-13T00:22:55;14.40;;;9.57;;
55350;SDS011;62194;49.480;10.986;2023-10-13T00:23:02;14.43;;;9.77;;
55350;SDS011;62194;49.480;10.986;2023-10-13T00:23:07;14.18;;;9.80;;
55350;SDS011;62194;49.480;10.986;2023-10-13T00:23:13;13.93;;;9.77;;
55350;SDS011;62194;49.480;10.986;2023-10-13T00:23:18;14.27;;;9.68;;
55350;SDS011;62194;49.480;10.986;2023-10-13T00:23:27;14.55;;;9.52;;
55350;SDS011;62194;49.480;10.986;2023-10-13T00:23:32;14.37;;;9.33;;
55350;SDS011;62194;49.480;10.986;2023-10-13T00:23:41;15.15;;;9.48;;
55350;SDS011;62194;49.480;10.986;2023-10-13T00:23:57;15.81;;;9.77;;
55350;SDS011;62194;49.480;10.986;2023-10-13T00:24:06;16.40;;;10.15;;
55350;SDS011;62194;49.480;10.986;2023-10-13T00:24:17;14.20;;;9.81;;
55350;SDS011;62194;49.480;10.986;2023-10-13T00:24:28;12.41;;;9.19;;
55350;SDS011;62194;49.480;10.986;2023-10-13T00:24:35;12.03;;;9.10;;
55350;SDS011;62194;49.480;10.986;2023-10-13T00:24:56;14.09;;;9.56;;
55350;SDS011;62194;49.480;10.986;2023-10-13T00:25:04;15.73;;;9.60;;
55350;SDS011;62194;49.480;10.986;2023-10-13T00:25:10;16.27;;;9.52;;
55350;SDS011;62194;49.480;10.986;2023-10-13T00:25:23;15.29;;;9.45;;
55350;SDS011;62194;49.480;10.986;2023-10-13T00:25:32;14.87;;;9.69;;
55350;SDS011;62194;49.480;10.986;2023-10-13T00:25:49;14.95;;;9.70;;
55350;SDS011;62194;49.480;10.986;2023-10-13T00:25:55;16.10;;;9.80;;
55350;SDS011;62194;49.480;10.986;2023-10-13T00:26:04;17.87;;;9.97;;
55350;SDS011;62194;49.480;10.986;2023-10-13T00:26:09;17.98;;;10.07;;
55350;SDS011;62194;49.480;10.986;2023-10-13T00:26:14;17.00;;;9.80;;
55350;SDS011;62194;49.480;10.986;2023-10-13T00:26:23;18.26;;;10.13;;
55350;SDS011;62194;49.480;10.986;2023-10-13T00:26:32;18.90;;;10.30;;
55350;SDS011;62194;49.480;10.986;2023-10-13T00:26:41;19.70;;;10.47;;
55350;SDS011;62194;49.480;10.986;2023-10-13T00:26:48;17.87;;;10.30;;
55350;SDS011;62194;49.480;10.986;2023-10-13T00:26:54;16.60;;;10.13;;
55350;SDS011;62194;49.480;10.986;2023-10-13T00:26:59;14.10;;;9.83;;
55350;SDS011;62194;49.480;10.986;2023-10-13T00:27:06;12.88;;;9.54;;
55350;SDS011;62194;49.480;10.986;2023-10-13T00:27:12;12.60;;;9.32;;
55350;SDS011;62194;49.480;10.986;2023-10-13T00:27:34;12.57;;;9.40;;
55350;SDS011;62194;49.480;10.986;2023-10-13T00:27:46;13.45;;;9.59;;
55350;SDS011;62194;49.480;10.986;2023-10-13T00:27:57;17.27;;;9.94;;
55350;SDS011;62194;49.480;10.986;2023-10-13T00:28:02;18.40;;;10.07;;
55350;SDS011;62194;49.480;10.986;2023-10-13T00:28:09;18.83;;;10.07;;
55350;SDS011;62194;49.480;10.986;2023-10-13T00:28:14;18.40;;;10.23;;
55350;SDS011;62194;49.480;10.986;2023-10-13T00:28:28;17.11;;;10.24;;
55350;SDS011;62194;49.480;10.986;2023-10-13T00:28:40;18.66;;;10.44;;
55350;SDS011;62194;49.480;10.986;2023-10-13T00:28:51;18.64;;;10.06;;
55350;SDS011;62194;49.480;10.986;2023-10-13T00:29:04;14.26;;;9.44;;
55350;SDS011;62194;49.480;10.986;2023-10-13T00:29:12;13.10;;;9.30;;
55350;SDS011;62194;49.480;10.986;2023-10-13T00:29:17;12.85;;;9.35;;
55350;SDS011;62194;49.480;10.986;2023-10-13T00:29:23;13.43;;;9.40;;
55350;SDS011;62194;49.480;10.986;2023-10-13T00:29:35;14.16;;;9.30;;
55350;SDS011;62194;49.480;10.986;2023-10-13T00:29:42;14.56;;;8.92;;
55350;SDS011;62194;49.480;10.986;2023-10-13T00:29:48;14.70;;;8.95;;
55350;SDS011;62194;49.480;10.986;2023-10-13T00:30:20;14.11;;;9.00;;
55350;SDS011;62194;49.480;10.986;2023-10-13T00:30:38;14.43;;;9.26;;
55350;SDS011;62194;49.480;10.986;2023-10-13T00:30:43;13.73;;;9.30;;
55350;SDS011;62194;49.480;10.986;2023-10-13T00:30:55;15.35;;;9.70;;
55350;SDS011;62194;49.480;10.986;2023-10-13T00:31:15;16.10;;;9.84;;
55350;SDS011;62194;49.480;10.986;2023-10-13T00:31:22;14.70;;;9.50;;
55350;SDS011;62194;49.480;10.986;2023-10-13T00:31:28;12.82;;;9.13;;
55350;SDS011;62194;49.480;10.986;2023-10-13T00:31:41;12.01;;;8.84;;
55350;SDS011;62194;49.480;10.986;2023-10-13T00:31:47;11.80;;;9.03;;
55350;SDS011;62194;49.480;10.986;2023-10-13T00:31:53;11.97;;;9.17;;
55350;SDS011;62194;49.480;10.986;2023-10-13T00:31:58;14.57;;;9.40;;
55350;SDS011;62194;49.480;10.986;2023-10-13T00:32:03;14.73;;;9.53;;
55350;SDS011;62194;49.480;10.986;2023-10-13T00:32:09;15.30;;;9.60;;
55350;SDS011;62194;49.480;10.986;2023-10-13T00:32:17;16.07;;;9.67;;
55350;SDS011;62194;49.480;10.986;2023-10-13T00:32:32;17.10;;;9.85;;
55350;SDS011;62194;49.480;10.986;2023-10-13T00:32:37;17.77;;;10.00;;
55350;SDS011;62194;49.480;10.986;2023-10-13T00:32:45;17.20;;;10.10;;
55350;SDS011;62194;49.480;10.986;2023-10-13T00:33:01;17.42;;;10.05;;
55350;SDS011;62194;49.480;10.986;2023-10-13T00:33:06;15.35;;;9.95;;
55350;SDS011;62194;49.480;10.986;2023-10-13T00:33:12;16.08;;;10.02;;
55350;SDS011;62194;49.480;10.986;2023-10-13T00:33:17;15.30;;;10.13;;
55350;SDS011;62194;49.480;10.986;2023-10-13T00:33:25;16.46;;;10.94;;
55350;SDS011;62194;49.480;10.986;2023-10-13T00:33:30;19.00;;;11.85;;
55350;SDS011;62194;49.480;10.986;2023-10-13T00:33:37;19.15;;;12.13;;
55350;SDS011;62194;49.480;10.986;2023-10-13T00:33:43;18.80;;;12.50;;
55350;SDS011;62194;49.480;10.986;2023-10-13T00:33:49;19.35;;;12.75;;
55350;SDS011;62194;49.480;10.986;2023-10-13T00:33:56;18.03;;;12.10;;
55350;SDS011;62194;49.480;10.986;2023-10-13T00:34:06;18.08;;;12.06;;
55350;SDS011;62194;49.480;10.986;2023-10-13T00:34:17;19.05;;;12.57;;
55350;SDS011;62194;49.480;10.986;2023-10-13T00:34:42;17.75;;;12.24;;
55350;SDS011;62194;49.480;10.986;2023-10-13T00:34:47;17.37;;;11.70;;
55350;SDS011;62194;49.480;10.986;2023-10-13T00:34:53;19.23;;;12.10;;
55350;SDS011;62194;49.480;10.986;2023-10-13T00:35:01;18.37;;;11.96;;
55350;SDS011;62194;49.480;10.986;2023-10-13T00:35:10;18.10;;;12.03;;
55350;SDS011;62194;49.480;10.986;2023-10-13T00:35:18;17.73;;;12.00;;
55350;SDS011;62194;49.480;10.986;2023-10-13T00:35:30;16.17;;;11.20;;
55350;SDS011;62194;49.480;10.986;2023-10-13T00:35:42;17.65;;;11.19;;
55350;SDS011;62194;49.480;10.986;2023-10-13T00:35:49;18.60;;;11.00;;
55350;SDS011;62194;49.480;10.986;2023-10-13T00:35:56;18.83;;;10.94;;
55350;SDS011;62194;49.480;10.986;2023-10-13T00:36:03;18.83;;;10.83;;
55350;SDS011;62194;49.480;10.986;2023-10-13T00:36:10;16.83;;;10.60;;
55350;SDS011;62194;49.480;10.986;2023-10-13T00:36:24;15.93;;;10.43;;
55350;SDS011;62194;49.480;10.986;2023-10-13T00:36:29;15.03;;;9.93;;
55350;SDS011;62194;49.480;10.986;2023-10-13T00:36:36;14.84;;;9.72;;
55350;SDS011;62194;49.480;10.986;2023-10-13T00:36:51;14.63;;;9.32;;
55350;SDS011;62194;49.480;10.986;2023-10-13T00:37:15;15.50;;;9.73;;
55350;SDS011;62194;49.480;10.986;2023-10-13T00:37:32;17.38;;;10.14;;
55350;SDS011;62194;49.480;10.986;2023-10-13T00:37:49;17.04;;;10.01;;
55350;SDS011;62194;49.480;10.986;2023-10-13T00:37:58;16.26;;;10.07;;
55350;SDS011;62194;49.480;10.986;2023-10-13T00:38:17;14.55;;;9.99;;
55350;SDS011;62194;49.480;10.986;2023-10-13T00:38:23;13.48;;;9.82;;
55350;SDS011;62194;49.480;10.986;2023-10-13T00:38:29;14.52;;;10.15;;
55350;SDS011;62194;49.480;10.986;2023-10-13T00:38:34;15.53;;;10.17;;
55350;SDS011;62194;49.480;10.986;2023-10-13T00:38:43;17.10;;;10.27;;
55350;SDS011;62194;49.480;10.986;2023-10-13T00:38:53;16.39;;;9.88;;
55350;SDS011;62194;49.480;10.986;2023-10-13T00:39:01;15.10;;;9.53;;
55350;SDS011;62194;49.480;10.986;2023-10-13T00:39:08;13.95;;;9.22;;
55350;SDS011;62194;49.480;10.986;2023-10-13T00:39:19;12.56;;;9.00;;
55350;SDS011;62194;49.480;10.986;2023-10-13T00:39:24;12.50;;;9.15;;
55350;SDS011;62194;49.480;10.986;2023-10-13T00:39:30;12.47;;;9.07;;
55350;SDS011;62194;49.480;10.986;2023-10-13T00:39:35;12.50;;;9.37;;
55350;SDS011;62194;49.480;10.986;2023-10-13T00:39:50;13.38;;;9.68;;
55350;SDS011;62194;49.480;10.986;2023-10-13T00:40:01;14.51;;;9.75;;
55350;SDS011;62194;49.480;10.986;2023-10-13T00:40:13;14.60;;;9.54;;
55350;SDS011;62194;49.480;10.986;2023-10-13T00:40:47;14.40;;;9.71;;
55350;SDS011;62194;49.480;10.986;2023-10-13T00:40:59;15.95;;;9.90;;
55350;SDS011;62194;49.480;10.986;2023-10-13T00:41:21;15.32;;;9.55;;
55350;SDS011;62194;49.480;10.986;2023-10-13T00:41:46;13.94;;;9.51;;
55350;SDS011;62194;49.480;10.986;2023-10-13T00:42:02;13.77;;;9.18;;
55350;SDS011;62194;49.480;10.986;2023-10-13T00:42:13;14.19;;;9.09;;
55350;SDS011;62194;49.480;10.986;2023-10-13T00:42:25;15.85;;;9.46;;
55350;SDS011;62194;49.480;10.986;2023-10-13T00:42:53;16.61;;;10.02;;
55350;SDS011;62194;49.480;10.986;2023-10-13T00:42:59;16.40;;;10.37;;
55350;SDS011;62194;49.480;10.986;2023-10-13T00:43:24;18.48;;;10.41;;
55350;SDS011;62194;49.480;10.986;2023-10-13T00:43:29;19.60;;;10.37;;
55350;SDS011;62194;49.480;10.986;2023-10-13T00:43:43;16.96;;;10.06;;
55350;SDS011;62194;49.480;10.986;2023-10-13T00:43:50;15.62;;;9.82;;
55350;SDS011;62194;49.480;10.986;2023-10-13T00:44:13;15.60;;;9.54;;
55350;SDS011;62194;49.480;10.986;2023-10-13T00:44:21;16.67;;;9.50;;
55350;SDS011;62194;49.480;10.986;2023-10-13T00:44:53;15.30;;;9.45;;
55350;SDS011;62194;49.480;10.986;2023-10-13T00:44:59;14.60;;;9.33;;
55350;SDS011;62194;49.480;10.986;2023-10-13T00:45:06;14.73;;;9.40;;
55350;SDS011;62194;49.480;10.986;2023-10-13T00:45:13;15.18;;;9.40;;
55350;SDS011;62194;49.480;10.986;2023-10-13T00:45:22;15.83;;;9.70;;
55350;SDS011;62194;49.480;10.986;2023-10-13T00:45:29;16.30;;;9.57;;
55350;SDS011;62194;49.480;10.986;2023-10-13T00:45:38;15.01;;;9.52;;
55350;SDS011;62194;49.480;10.986;2023-10-13T00:45:46;12.33;;;9.63;;
55350;SDS011;62194;49.480;10.986;2023-10-13T00:46:11;14.68;;;9.79;;
55350;SDS011;62194;49.480;10.986;2023-10-13T00:46:18;18.38;;;10.24;;
55350;SDS011;62194;49.480;10.986;2023-10-13T00:46:25;16.80;;;10.24;;
55350;SDS011;62194;49.480;10.986;2023-10-13T00:46:38;16.29;;;10.00;;
55350;SDS011;62194;49.480;10.986;2023-10-13T00:46:43;14.07;;;9.65;;
55350;SDS011;62194;49.480;10.986;2023-10-13T00:46:50;15.05;;;9.73;;
55350;SDS011;62194;49.480;10.986;2023-10-13T00:47:00;16.55;;;9.96;;
55350;SDS011;62194;49.480;10.986;2023-10-13T00:47:07;17.57;;;9.90;;
55350;SDS011;62194;49.480;10.986;2023-10-13T00:47:17;17.87;;;9.90;;
55350;SDS011;62194;49.480;10.986;2023-10-13T00:47:52;16.79;;;9.68;;
55350;SDS011;62194;49.480;10.986;2023-10-13T00:48:01;15.70;;;9.87;;
55350;SDS011;62194;49.480;10.986;2023-10-13T00:48:16;14.36;;;9.95;;
55350;SDS011;62194;49.480;10.986;2023-10-13T00:48:28;13.90;;;10.13;;
55350;SDS011;62194;49.480;10.986;2023-10-13T00:48:39;13.81;;;9.94;;
55350;SDS011;62194;49.480;10.986;2023-10-13T00:48:50;13.54;;;9.49;;
55350;SDS011;62194;49.480;10.986;2023-10-13T00:48:59;13.67;;;9.30;;
55350;SDS011;62194;49.480;10.986;2023-10-13T00:49:06;14.12;;;9.44;;
55350;SDS011;62194;49.480;10.986;2023-10-13T00:49:14;15.25;;;10.13;;
55350;SDS011;62194;49.480;10.986;2023-10-13T00:49:20;14.73;;;10.10;;
55350;SDS011;62194;49.480;10.986;2023-10-13T00:49:26;14.32;;;10.10;;
55350;SDS011;62194;49.480;10.986;2023-10-13T00:49:35;13.88;;;10.08;;
55350;SDS011;62194;49.480;10.986;2023-10-13T00:49:44;13.40;;;9.46;;
55350;SDS011;62194;49.480;10.986;2023-10-13T00:49:52;13.70;;;9.27;;
55350;SDS011;62194;49.480;10.986;2023-10-13T00:49:58;13.55;;;9.23;;
55350;SDS011;62194;49.480;10.986;2023-10-13T00:50:04;13.70;;;9.13;;
55350;SDS011;62194;49.480;10.986;2023-10-13T00:50:10;13.35;;;9.38;;
55350;SDS011;62194;49.480;10.986;2023-10-13T00:50:20;13.80;;;9.30;;
55350;SDS011;62194;49.480;10.986;2023-10-13T00:50:25;14.27;;;9.47;;
55350;SDS011;62194;49.480;10.986;2023-10-13T00:50:31;14.65;;;9.43;;
55350;SDS011;62194;49.480;10.986;2023-10-13T00:50:41;14.82;;;9.71;;
55350;SDS011;62194;49.480;10.986;2023-10-13T00:50:50;13.79;;;10.01;;
55350;SDS011;62194;49.480;10.986;2023-10-13T00:51:05;13.43;;;10.03;;
55350;SDS011;62194;49.480;10.986;2023-10-13T00:51:12;13.68;;;9.88;;
55350;SDS011;62194;49.480;10.986;2023-10-13T00:51:37;15.56;;;9.52;;
55350;SDS011;62194;49.480;10.986;2023-10-13T00:51:52;16.91;;;9.51;;
55350;SDS011;62194;49.480;10.986;2023-10-13T00:51:57;17.63;;;9.27;;
55350;SDS011;62194;49.480;10.986;2023-10-13T00:52:03;18.33;;;9.17;;
55350;SDS011;62194;49.480;10.986;2023-10-13T00:52:08;17.92;;;9.27;;